Archival Weather

Heathrow

London, United Kingdom (EGLL)

Report from: Wednesday, December 6, 2023 10:20 PM GMT
Current time: Saturday, March 2, 2024 10:13 AM GMT

Current weather – Weather history – Daily summaries
Weather forecast

Temperature4.0°C (39.2°F)
Wind chill0.6°C (33.0°F)
Dew point3.0°C (37.4°F)
Winds 8 kts (4.1 m/s, 9.2 mph) East-Southeast (120°)
Visibility6.2 mi. (10 km)
Clouds Sky clear
Altimeter30.00 in.Hg (1016 mB)
Relative humidity93 %
Density altitude-1,314 ft. (-401 m)
Remarks Fully automated report
No clouds detected
Flight conditions Visual Meteorological Conditions
Raw dataEGLL 062220Z AUTO 12008KT 9999 NCD 04/03 Q1016
An error has occurred. This application may no longer respond until reloaded. Reload 🗙